Time;durP1;ratioP1;P1;durP2;ratioP2;P2;SDS_P1;SDS_P2;PMS_P1;PMS_P2;Temp;Humidity;BMP_temperature;BMP_pressure;BME280_temperature;BME280_humidity;BME280_pressure;Samples;Min_cycle;Max_cycle;Signal;HPM_P1;HPM_P2
2021/03/15 00:02:19;;;;;;;3.80;2.80;;;3.20;99.90;;;1.71;100.00;99678.38;4927201;28;100245;-61
2021/03/15 00:04:45;;;;;;;3.63;2.93;;;3.40;99.90;;;1.72;100.00;99671.28;4927394;28;101548;-61
2021/03/15 00:07:11;;;;;;;4.90;2.87;;;3.30;99.90;;;1.76;100.00;99668.28;4928037;28;100449;-62
2021/03/15 00:09:39;;;;;;;5.40;2.77;;;3.30;99.90;;;1.78;100.00;99668.16;4927264;28;101586;-62
2021/03/15 00:12:08;;;;;;;3.30;3.00;;;3.50;99.90;;;1.82;100.00;99660.88;4926156;28;100147;-61
2021/03/15 00:14:34;;;;;;;4.33;2.90;;;3.30;99.90;;;1.86;100.00;99672.84;4925956;28;101209;-61
2021/03/15 00:17:01;;;;;;;4.97;3.00;;;3.50;99.90;;;1.85;100.00;99665.91;4926141;28;100662;-62
2021/03/15 00:19:27;;;;;;;4.17;3.23;;;3.50;99.90;;;1.83;100.00;99666.03;4925624;28;100072;-60
2021/03/15 00:21:54;;;;;;;4.53;3.30;;;3.40;99.90;;;1.79;100.00;99668.06;4926363;28;100450;-60
2021/03/15 00:24:20;;;;;;;3.73;3.00;;;3.80;99.90;;;1.79;100.00;99661.94;4926424;28;100532;-61
2021/03/15 00:26:48;;;;;;;6.13;3.10;;;3.50;99.90;;;1.80;100.00;99660.97;4926263;28;100746;-61
2021/03/15 00:29:14;;;;;;;4.80;3.30;;;3.40;99.90;;;1.84;100.00;99664.22;4926864;28;100254;-61
2021/03/15 00:31:41;;;;;;;3.87;2.97;;;3.50;99.90;;;1.76;100.00;99660.38;4926238;28;100346;-59
2021/03/15 00:34:07;;;;;;;5.00;3.00;;;4.40;99.90;;;1.73;100.00;99659.78;4926002;28;101028;-62
2021/03/15 00:36:33;;;;;;;3.57;2.70;;;3.50;99.90;;;1.72;100.00;99658.09;4925337;28;101192;-59
2021/03/15 00:39:00;;;;;;;3.83;2.70;;;3.50;99.90;;;1.63;100.00;99649.06;4924928;28;100071;-62
2021/03/15 00:41:26;;;;;;;4.40;2.80;;;3.40;99.90;;;1.58;100.00;99651.25;4925790;28;100168;-61
2021/03/15 00:43:54;;;;;;;4.17;2.90;;;3.40;99.90;;;1.59;100.00;99649.44;4926004;28;101292;-61
2021/03/15 00:46:20;;;;;;;4.53;3.20;;;4.50;99.90;;;1.58;100.00;99653.03;4927127;28;102778;-63
2021/03/15 00:48:47;;;;;;;6.67;3.20;;;4.30;99.90;;;1.53;100.00;99644.63;4903732;28;100453;-62
2021/03/15 00:51:13;;;;;;;3.50;2.90;;;3.30;99.90;;;1.50;100.00;99645.69;4924494;28;100389;-60
2021/03/15 00:53:40;;;;;;;3.93;3.03;;;3.10;99.90;;;1.52;100.00;99645.59;4924397;28;102836;-62
2021/03/15 00:56:07;;;;;;;4.47;3.30;;;3.60;99.90;;;1.48;100.00;99649.44;4923716;28;101442;-62
2021/03/15 00:58:34;;;;;;;3.53;3.13;;;3.20;99.90;;;1.52;100.00;99640.31;4926746;28;100382;-62
2021/03/15 01:01:01;;;;;;;5.10;3.53;;;3.10;99.90;;;1.50;100.00;99642.22;4926387;28;100535;-61
2021/03/15 01:03:51;;;;;;;3.70;3.10;;;2.90;99.90;;;1.44;100.00;99647.00;4914088;28;101021;-62
2021/03/15 01:06:18;;;;;;;5.10;3.53;;;3.10;99.90;;;1.44;100.00;99641.75;4925591;28;101207;-63
2021/03/15 01:09:04;;;;;;;3.57;3.10;;;3.20;99.90;;;1.39;100.00;99643.03;4925859;28;100150;-61
2021/03/15 01:11:41;;;;;;;5.43;3.63;;;3.00;99.90;;;1.36;100.00;99632.75;4907926;28;100246;-61
2021/03/15 01:14:12;;;;;;;4.93;3.83;;;3.00;99.90;;;1.39;100.00;99643.03;4925154;28;103524;-60
2021/03/15 01:16:51;;;;;;;5.53;3.97;;;2.90;99.90;;;1.43;100.00;99634.78;4887423;28;102392;-61
2021/03/15 01:19:18;;;;;;;4.90;3.87;;;3.00;99.90;;;1.47;100.00;99635.41;4906786;28;100400;-62
2021/03/15 01:21:45;;;;;;;5.80;3.73;;;3.00;99.90;;;1.50;100.00;99636.94;4925863;28;100326;-61
2021/03/15 01:24:11;;;;;;;7.40;4.57;;;3.00;99.90;;;1.62;100.00;99630.72;4925520;28;101324;-63
2021/03/15 01:26:38;;;;;;;7.07;4.47;;;3.00;99.90;;;1.65;100.00;99633.97;4924911;28;101076;-60
2021/03/15 01:29:04;;;;;;;5.37;3.97;;;3.00;99.90;;;1.71;100.00;99620.34;4925706;28;100176;-62
2021/03/15 01:31:31;;;;;;;6.90;4.87;;;3.00;99.90;;;1.80;100.00;99624.91;4940175;28;100055;-61
2021/03/15 01:33:58;;;;;;;6.37;4.20;;;3.30;99.90;;;1.85;100.00;99615.78;4925604;28;100952;-61
2021/03/15 01:36:25;;;;;;;5.63;4.27;;;3.30;99.90;;;1.87;100.00;99616.50;4924920;28;100621;-61
2021/03/15 01:38:51;;;;;;;9.60;4.60;;;3.30;99.90;;;1.92;100.00;99611.72;4925516;28;99946;-61
2021/03/15 01:41:18;;;;;;;5.10;4.43;;;3.40;99.90;;;1.98;100.00;99606.78;4925453;28;100041;-62
2021/03/15 01:43:44;;;;;;;6.47;4.53;;;3.50;99.90;;;1.98;100.00;99611.25;4925146;28;101428;-61
2021/03/15 01:46:11;;;;;;;5.70;4.40;;;3.50;99.90;;;2.00;100.00;99601.38;4924979;28;100472;-61
2021/03/15 01:48:37;;;;;;;6.00;4.50;;;3.60;99.90;;;2.04;100.00;99601.03;4925887;28;100137;-61
2021/03/15 01:51:05;;;;;;;7.27;4.87;;;4.00;99.90;;;2.08;100.00;99606.91;4925075;28;100242;-62
2021/03/15 01:53:31;;;;;;;5.20;4.03;;;3.70;99.90;;;2.06;100.00;99606.19;4924605;28;100752;-61
2021/03/15 01:55:58;;;;;;;7.23;4.90;;;3.70;99.90;;;2.06;100.00;99596.47;4925350;28;100696;-63
2021/03/15 01:58:25;;;;;;;5.27;4.33;;;3.70;99.90;;;2.13;100.00;99594.19;4925667;28;100192;-61
2021/03/15 02:00:51;;;;;;;7.23;4.70;;;3.70;99.90;;;2.11;100.00;99596.09;4925766;28;100257;-61
2021/03/15 02:03:20;;;;;;;5.60;4.37;;;3.90;99.90;;;2.13;100.00;99588.91;4906041;28;102798;-63
2021/03/15 02:05:47;;;;;;;6.40;4.77;;;3.80;99.90;;;2.09;100.00;99588.31;4925338;28;100340;-61
2021/03/15 02:08:15;;;;;;;9.73;5.30;;;3.90;99.90;;;2.06;100.00;99583.28;4926113;28;100468;-62
2021/03/15 02:10:41;;;;;;;7.80;5.27;;;3.80;99.90;;;2.07;100.00;99584.13;4925721;28;100259;-62
2021/03/15 02:13:33;;;;;;;7.23;4.57;;;4.40;99.90;;;2.00;100.00;99585.56;4925202;28;100916;-62
2021/03/15 02:16:07;;;;;;;6.30;4.90;;;3.90;99.90;;;2.01;100.00;99579.31;4924796;28;100519;-61
2021/03/15 02:18:53;;;;;;;6.63;4.97;;;3.70;99.90;;;1.95;100.00;99577.19;4925054;28;99931;-62
2021/03/15 02:22:22;;;;;;;8.67;5.37;;;3.70;99.90;;;1.89;100.00;99577.66;4925133;28;100245;-61
2021/03/15 02:25:52;;;;;;;6.33;5.03;;;3.80;99.90;;;1.77;100.00;99582.09;4924003;28;100997;-62
2021/03/15 02:28:41;;;;;;;8.27;5.03;;;3.60;99.90;;;1.68;100.00;99583.66;4924501;28;101120;-62
2021/03/15 02:31:32;;;;;;;5.17;4.50;;;3.40;99.90;;;1.61;100.00;99584.22;4925472;28;100070;-63
2021/03/15 02:34:46;;;;;;;6.57;4.90;;;3.30;99.90;;;1.56;100.00;99594.31;4925130;28;100109;-62
2021/03/15 02:37:19;;;;;;;7.83;5.70;;;3.20;99.90;;;1.50;100.00;99587.69;4925227;28;100925;-61
2021/03/15 02:39:50;;;;;;;7.87;5.03;;;3.50;99.90;;;1.41;100.00;99583.97;4924755;28;100599;-62
2021/03/15 02:42:20;;;;;;;8.37;5.20;;;3.20;99.90;;;1.40;100.00;99584.09;4924671;28;100168;-61
2021/03/15 02:44:51;;;;;;;7.57;5.40;;;3.20;99.90;;;1.36;100.00;99578.19;4924178;28;100184;-61
2021/03/15 02:47:22;;;;;;;8.47;5.83;;;3.00;99.90;;;1.29;100.00;99577.00;4924254;28;101338;-61
2021/03/15 02:49:56;;;;;;;6.77;5.33;;;3.10;99.90;;;1.25;100.00;99577.34;4924315;28;100617;-62
2021/03/15 02:52:25;;;;;;;7.40;5.50;;;3.10;99.90;;;1.26;100.00;99579.88;4925088;28;101448;-61
2021/03/15 02:54:55;;;;;;;6.40;4.93;;;2.90;99.90;;;1.23;100.00;99574.84;4924842;28;100371;-63
2021/03/15 02:57:22;;;;;;;8.57;5.87;;;2.90;99.90;;;1.25;100.00;99575.53;4924242;28;101578;-60
2021/03/15 02:59:52;;;;;;;8.17;5.40;;;3.10;99.90;;;1.24;100.00;99583.56;4924826;28;100596;-61
2021/03/15 03:02:19;;;;;;;8.70;5.00;;;3.20;99.90;;;1.27;100.00;99580.69;4926813;28;100068;-61
2021/03/15 03:04:48;;;;;;;7.67;5.60;;;3.00;99.90;;;1.29;100.00;99579.63;4927936;28;100282;-63
2021/03/15 03:07:17;;;;;;;7.03;5.20;;;2.90;99.90;;;1.30;100.00;99583.94;4927763;28;101769;-61
2021/03/15 03:09:45;;;;;;;8.43;5.53;;;4.10;99.90;;;1.33;100.00;99583.72;4927416;28;101518;-61
2021/03/15 03:12:14;;;;;;;9.40;6.40;;;3.80;99.90;;;1.33;100.00;99583.72;4927882;28;100210;-62
2021/03/15 03:14:41;;;;;;;7.93;5.90;;;3.00;99.90;;;1.33;100.00;99580.25;4927829;28;100048;-61
2021/03/15 03:17:10;;;;;;;8.73;5.57;;;2.90;99.90;;;1.34;100.00;99569.59;4927380;28;101269;-61
2021/03/15 03:19:40;;;;;;;7.30;5.90;;;3.00;99.90;;;1.35;100.00;99571.28;4927365;28;100840;-61
2021/03/15 03:22:09;;;;;;;7.87;5.80;;;3.10;99.90;;;1.35;100.00;99570.44;4927326;28;100191;-61
2021/03/15 03:24:36;;;;;;;10.17;6.30;;;3.20;99.90;;;1.39;100.00;99577.13;4928051;28;100055;-61
2021/03/15 03:27:06;;;;;;;8.37;5.63;;;3.10;99.90;;;1.42;100.00;99576.91;4927879;28;101260;-61
2021/03/15 03:29:33;;;;;;;7.53;5.97;;;3.20;99.90;;;1.43;100.00;99575.94;4927758;28;100511;-61
2021/03/15 03:32:02;;;;;;;8.73;6.03;;;3.20;99.90;;;1.46;100.00;99575.72;4927814;28;100218;-60
2021/03/15 03:34:29;;;;;;;9.17;6.13;;;3.20;99.90;;;1.51;100.00;99575.34;4926828;28;100283;-61
2021/03/15 03:36:56;;;;;;;7.50;5.83;;;4.20;99.90;;;1.51;100.00;99577.97;4926705;28;100640;-61
2021/03/15 03:39:23;;;;;;;8.70;6.43;;;3.40;99.90;;;1.55;100.00;99582.06;4927022;28;101112;-62
2021/03/15 03:41:49;;;;;;;8.97;6.30;;;3.40;99.90;;;1.58;100.00;99571.31;4927578;28;100245;-60
2021/03/15 03:44:17;;;;;;;7.90;5.80;;;3.30;99.90;;;1.58;100.00;99576.56;4927606;28;100182;-61
2021/03/15 03:46:45;;;;;;;9.77;6.17;;;4.60;99.90;;;1.55;100.00;99569.72;4926838;28;100992;-61
2021/03/15 03:49:12;;;;;;;10.67;6.53;;;3.40;99.90;;;1.58;100.00;99564.22;4926685;28;100898;-61
2021/03/15 03:51:46;;;;;;;8.37;5.83;;;4.60;99.90;;;1.54;100.00;99565.41;4927072;28;100184;-60
2021/03/15 03:54:17;;;;;;;8.67;6.43;;;4.20;99.90;;;1.59;100.00;99565.91;4926802;28;100117;-62
2021/03/15 03:56:52;;;;;;;8.47;6.67;;;3.40;99.90;;;1.68;100.00;99570.47;4925963;28;101740;-62
2021/03/15 03:59:23;;;;;;;10.60;7.07;;;3.60;99.90;;;1.88;100.00;99562.78;4925681;28;101649;-64
2021/03/15 04:01:56;;;;;;;13.20;7.73;;;3.50;99.90;;;1.86;100.00;99570.81;4927237;28;100482;-61
2021/03/15 04:04:26;;;;;;;11.03;7.80;;;3.60;99.90;;;1.80;100.00;99566.88;4927441;28;100438;-63
2021/03/15 04:06:54;;;;;;;10.17;6.50;;;3.60;99.90;;;1.93;100.00;99565.91;4926114;28;101768;-59
2021/03/15 04:09:27;;;;;;;14.30;7.23;;;3.60;99.90;;;1.91;100.00;99567.81;4926243;28;100666;-59
2021/03/15 04:11:59;;;;;;;11.57;7.00;;;3.70;99.90;;;1.88;100.00;99570.69;4926214;28;100775;-62
2021/03/15 04:14:30;;;;;;;7.90;6.73;;;4.10;99.90;;;1.83;100.00;99563.16;4925517;28;100251;-63
2021/03/15 04:17:00;;;;;;;10.37;6.60;;;3.70;99.90;;;2.03;100.00;99565.06;4926390;28;100989;-59
2021/03/15 04:19:31;;;;;;;13.00;7.73;;;3.70;99.90;;;1.98;100.00;99564.56;4926341;28;101573;-60
2021/03/15 04:22:06;;;;;;;11.57;7.50;;;3.70;99.90;;;2.08;100.00;99567.34;4926168;28;100275;-62
2021/03/15 04:24:36;;;;;;;7.70;6.63;;;3.80;99.90;;;2.01;100.00;99559.03;4925960;28;100060;-62
2021/03/15 04:27:04;;;;;;;10.50;7.87;;;3.80;99.90;;;2.17;100.00;99558.69;4925582;28;101021;-62
2021/03/15 04:29:32;;;;;;;9.10;6.90;;;3.90;99.90;;;2.02;100.00;99565.16;4925826;28;101365;-62
2021/03/15 04:32:00;;;;;;;11.90;7.90;;;4.00;99.90;;;2.02;100.00;99562.53;4925802;28;100002;-60
2021/03/15 04:34:29;;;;;;;9.63;7.40;;;3.90;99.90;;;1.96;100.00;99563.03;4920917;28;100315;-62
2021/03/15 04:36:57;;;;;;;9.13;6.50;;;3.70;99.90;;;1.91;100.00;99555.47;4906010;28;100840;-61
2021/03/15 04:39:25;;;;;;;9.73;7.23;;;3.90;99.90;;;1.92;100.00;99561.59;4906739;28;100608;-62
2021/03/15 04:41:52;;;;;;;11.23;7.07;;;3.80;99.90;;;1.91;100.00;99557.25;4914152;28;100302;-61
2021/03/15 04:44:19;;;;;;;16.53;8.87;;;3.80;99.90;;;1.93;100.00;99558.81;4926493;28;100196;-62
2021/03/15 04:46:46;;;;;;;13.17;8.80;;;4.40;99.90;;;1.91;100.00;99552.00;4925795;28;100735;-61
2021/03/15 04:49:13;;;;;;;12.20;7.57;;;3.60;99.90;;;1.82;100.00;99550.94;4919805;28;102730;-61
2021/03/15 04:51:41;;;;;;;11.03;7.33;;;3.70;99.90;;;1.75;100.00;99558.47;4925092;28;100183;-61
2021/03/15 04:54:09;;;;;;;11.60;7.50;;;3.50;99.90;;;1.73;100.00;99555.09;4926446;28;99982;-62
2021/03/15 04:56:38;;;;;;;9.23;6.80;;;3.50;99.90;;;1.68;100.00;99556.44;4926365;28;100734;-61
2021/03/15 04:59:07;;;;;;;18.60;8.20;;;4.10;99.90;;;1.71;100.00;99562.31;4926117;28;101501;-61
2021/03/15 05:01:39;;;;;;;10.77;7.57;;;4.10;99.90;;;1.78;100.00;99562.66;4925200;28;100173;-61
2021/03/15 05:04:11;;;;;;;9.53;7.00;;;3.20;99.90;;;1.65;100.00;99564.56;4925642;28;99976;-61
2021/03/15 05:06:39;;;;;;;9.63;7.27;;;3.20;99.90;;;1.58;100.00;99566.88;4925835;28;100964;-61
2021/03/15 05:09:08;;;;;;;11.23;7.43;;;3.70;99.90;;;1.60;100.00;99561.47;4925475;28;100689;-61
2021/03/15 05:11:38;;;;;;;9.23;7.50;;;3.30;99.90;;;1.53;100.00;99563.72;4925511;28;100079;-61
2021/03/15 05:14:06;;;;;;;30.03;9.37;;;3.10;99.90;;;1.65;100.00;99559.31;4924441;28;100425;-60
2021/03/15 05:16:36;;;;;;;10.90;8.40;;;4.30;99.90;;;1.59;100.00;99563.28;4924746;28;101504;-63
2021/03/15 05:19:08;;;;;;;10.97;6.77;;;3.10;99.90;;;1.43;100.00;99563.59;4924602;28;101107;-61
2021/03/15 05:21:35;;;;;;;9.43;7.20;;;3.10;99.90;;;1.39;100.00;99569.22;4924008;28;100198;-61
2021/03/15 05:24:04;;;;;;;10.43;7.00;;;3.00;99.90;;;1.34;100.00;99569.59;4922510;28;100422;-62
2021/03/15 05:26:33;;;;;;;9.80;7.37;;;2.80;99.90;;;1.40;100.00;99573.53;4922067;28;101520;-61
2021/03/15 05:29:00;;;;;;;18.27;7.83;;;3.20;99.90;;;1.43;100.00;99571.50;4915011;28;101328;-62
2021/03/15 05:31:29;;;;;;;15.07;7.73;;;3.50;99.90;;;1.47;100.00;99566.03;4923117;28;100283;-61
2021/03/15 05:33:57;;;;;;;9.63;7.30;;;2.70;99.90;;;1.34;100.00;99560.84;4923411;28;100394;-62
2021/03/15 05:36:25;;;;;;;9.83;6.97;;;2.80;99.90;;;1.28;100.00;99564.78;4917728;28;100794;-61
2021/03/15 05:38:52;;;;;;;11.97;7.47;;;2.80;99.90;;;1.30;100.00;99564.66;4920165;28;100845;-61
2021/03/15 05:41:25;;;;;;;10.53;7.37;;;2.70;99.90;;;1.28;100.00;99558.66;4922021;28;100249;-61
2021/03/15 05:44:13;;;;;;;12.53;8.20;;;2.70;99.90;;;1.40;100.00;99555.94;4922442;28;100266;-61
2021/03/15 05:47:25;;;;;;;11.60;7.70;;;3.40;99.90;;;1.43;100.00;99553.06;4922395;28;101527;-61
2021/03/15 05:50:45;;;;;;;10.13;7.57;;;2.70;99.90;;;1.67;100.00;99549.47;4922612;28;100383;-61
2021/03/15 05:53:49;;;;;;;10.03;6.63;;;2.80;99.90;;;1.86;100.00;99546.22;4922183;28;100748;-62
2021/03/15 05:56:35;;;;;;;11.60;6.63;;;2.90;99.90;;;1.97;100.00;99535.69;4922468;28;100087;-62
2021/03/15 05:59:20;;;;;;;10.50;7.43;;;3.20;99.90;;;2.09;100.00;99545.25;4921486;28;101715;-61
2021/03/15 06:02:01;;;;;;;10.43;7.57;;;3.30;99.90;;;2.21;100.00;99546.09;4914098;28;100651;-60
2021/03/15 06:04:47;;;;;;;10.17;6.90;;;3.50;99.90;;;2.38;100.00;99540.25;4922573;28;100167;-62
2021/03/15 06:07:17;;;;;;;10.20;7.20;;;3.60;99.90;;;2.44;100.00;99535.34;4921451;28;100419;-61
2021/03/15 06:10:01;;;;;;;8.87;6.67;;;3.60;99.90;;;2.47;100.00;99540.34;4922167;28;101184;-62
2021/03/15 06:12:37;;;;;;;9.47;6.47;;;5.10;99.90;;;2.42;100.00;99542.53;4913967;28;101545;-62
2021/03/15 06:15:06;;;;;;;8.17;6.80;;;4.00;99.90;;;2.44;100.00;99535.34;4917393;28;100142;-62
2021/03/15 06:17:34;;;;;;;9.27;6.80;;;4.20;99.90;;;2.52;100.00;99532.91;4921163;28;100942;-63
2021/03/15 06:20:05;;;;;;;8.30;6.93;;;4.10;99.90;;;2.59;100.00;99533.25;4922087;28;101456;-62
2021/03/15 06:22:33;;;;;;;11.50;7.40;;;4.20;99.90;;;2.63;100.00;99528.53;4921172;28;101157;-61
2021/03/15 06:25:02;;;;;;;8.47;7.20;;;4.30;99.90;;;2.66;100.00;99533.56;4922849;28;99993;-61
2021/03/15 06:27:29;;;;;;;9.13;7.07;;;4.40;99.90;;;2.71;100.00;99529.59;4922024;28;100056;-61
2021/03/15 06:29:57;;;;;;;9.73;6.57;;;4.40;99.90;;;2.84;100.00;99532.88;4921706;28;100729;-61
2021/03/15 06:32:26;;;;;;;9.23;7.33;;;5.00;99.90;;;2.95;100.00;99532.00;4913007;28;101572;-63
2021/03/15 06:34:55;;;;;;;8.40;6.40;;;4.60;99.90;;;3.03;100.00;99520.78;4922287;28;100216;-61
2021/03/15 06:37:23;;;;;;;9.27;6.23;;;4.70;99.90;;;3.19;100.00;99532.59;4923049;28;100504;-61
2021/03/15 06:39:52;;;;;;;7.47;6.53;;;4.90;99.90;;;3.25;100.00;99529.41;4925487;28;100918;-60
2021/03/15 06:42:20;;;;;;;9.63;6.57;;;4.90;99.90;;;3.15;100.00;99528.50;4923859;28;101327;-61
2021/03/15 06:44:47;;;;;;;9.50;6.33;;;5.20;99.90;;;3.24;100.00;99535.66;4924596;28;100238;-59
2021/03/15 06:47:15;;;;;;;9.33;6.43;;;5.10;99.90;;;3.43;100.00;99526.19;4927677;28;100396;-60
2021/03/15 06:49:42;;;;;;;10.50;6.87;;;5.20;99.90;;;3.71;100.00;99528.09;4925157;28;101118;-61
2021/03/15 06:52:10;;;;;;;9.97;6.87;;;5.30;99.90;;;3.78;100.00;99539.00;4924389;28;101114;-58
2021/03/15 06:54:37;;;;;;;9.27;6.60;;;5.70;99.90;;;3.98;100.00;99530.16;4925755;28;100404;-61
2021/03/15 06:57:16;;;;;;;8.03;6.37;;;5.80;99.90;;;4.23;100.00;99532.31;4905962;28;100497;-60
2021/03/15 06:59:52;;;;;;;6.43;5.23;;;6.00;99.90;;;4.13;100.00;99530.63;4925544;28;100944;-60
2021/03/15 07:02:28;;;;;;;9.17;5.77;;;6.30;99.90;;;3.99;100.00;99534.47;4924168;28;100104;-59
2021/03/15 07:05:06;;;;;;;8.43;5.83;;;6.50;99.90;;;3.89;100.00;99533.59;4916585;28;100424;-60
2021/03/15 07:07:33;;;;;;;7.97;5.90;;;6.50;99.90;;;3.74;100.00;99538.41;4924726;28;100239;-60
2021/03/15 07:10:00;;;;;;;10.30;6.57;;;6.50;99.90;;;3.72;100.00;99535.06;4924062;28;100183;-60
2021/03/15 07:12:27;;;;;;;7.40;6.60;;;6.30;99.90;;;3.71;100.00;99535.22;4923388;28;100538;-62
2021/03/15 07:15:06;;;;;;;8.60;6.60;;;6.20;99.90;;;3.70;100.00;99534.38;4925077;28;100345;-61
2021/03/15 07:17:33;;;;;;;10.47;6.57;;;6.30;99.90;;;3.61;100.00;99543.09;4924632;28;100478;-61
2021/03/15 07:20:00;;;;;;;11.13;7.10;;;6.20;99.90;;;3.74;100.00;99542.88;4923693;28;100648;-60
2021/03/15 07:22:29;;;;;;;8.23;6.00;;;6.30;99.90;;;3.66;100.00;99540.06;4923204;28;100654;-60
2021/03/15 07:25:08;;;;;;;9.33;6.87;;;6.20;99.90;;;3.84;100.00;99549.03;4923971;28;99901;-61
2021/03/15 07:27:37;;;;;;;7.90;6.50;;;6.10;99.90;;;3.97;100.00;99557.59;4924382;28;100387;-62
2021/03/15 07:30:28;;;;;;;8.47;6.10;;;7.40;99.90;;;3.84;100.00;99541.09;4916343;28;101626;-62
2021/03/15 07:32:55;;;;;;;10.40;7.07;;;6.20;99.90;;;3.99;100.00;99542.41;4923138;28;100552;-61
2021/03/15 07:35:24;;;;;;;11.93;7.17;;;6.30;99.90;;;3.95;100.00;99539.22;4923939;28;101220;-61
2021/03/15 07:37:51;;;;;;;10.70;7.07;;;6.30;99.90;;;3.88;100.00;99537.22;4923535;28;100723;-61
2021/03/15 07:40:35;;;;;;;10.33;7.10;;;6.40;99.90;;;3.69;100.00;99538.00;4924296;28;101373;-60
2021/03/15 07:43:03;;;;;;;10.67;7.80;;;6.40;99.90;;;3.58;100.00;99543.38;4923465;28;100663;-62
2021/03/15 07:45:33;;;;;;;10.07;8.00;;;6.40;99.90;;;3.45;100.00;99540.09;4924480;28;100100;-60
2021/03/15 07:48:13;;;;;;;9.50;7.03;;;6.20;99.90;;;3.32;100.00;99542.97;4924252;28;100305;-62
2021/03/15 07:50:41;;;;;;;11.90;7.90;;;6.10;99.90;;;3.24;100.00;99550.69;4923933;28;100699;-61
2021/03/15 07:53:08;;;;;;;10.43;7.73;;;6.00;99.90;;;3.03;100.00;99547.22;4924719;28;100855;-61
2021/03/15 07:55:37;;;;;;;10.33;7.90;;;6.70;99.90;;;2.89;100.00;99551.84;4924517;28;100351;-59
2021/03/15 07:58:29;;;;;;;12.30;7.93;;;5.60;99.90;;;2.75;100.00;99559.22;4924407;28;100403;-59
2021/03/15 08:00:57;;;;;;;10.93;8.47;;;5.30;99.90;;;2.63;100.00;99561.06;4923755;28;101222;-58
2021/03/15 08:03:24;;;;;;;13.97;7.00;;;5.10;99.90;;;2.50;100.00;99555.94;4923861;28;100396;-61
2021/03/15 08:05:52;;;;;;;10.63;6.80;;;5.00;99.90;;;2.46;100.00;99557.19;4923422;28;100337;-61
2021/03/15 08:08:19;;;;;;;13.80;8.47;;;4.80;99.90;;;2.45;100.00;99557.31;4905520;28;100100;-60
2021/03/15 08:10:46;;;;;;;20.57;9.50;;;4.80;99.90;;;2.56;100.00;99553.78;4923680;28;101071;-58
2021/03/15 08:13:15;;;;;;;14.30;9.60;;;4.50;99.90;;;2.61;100.00;99562.16;4904199;28;101609;-60
2021/03/15 08:15:46;;;;;;;14.60;10.20;;;4.70;99.90;;;2.66;100.00;99558.19;4924004;28;100398;-59
2021/03/15 08:18:20;;;;;;;14.13;10.40;;;4.60;99.90;;;2.66;100.00;99552.06;4924075;28;100385;-59
2021/03/15 08:20:50;;;;;;;11.97;9.10;;;4.70;99.90;;;2.62;100.00;99553.25;4917040;28;100753;-61
2021/03/15 08:23:19;;;;;;;17.93;11.17;;;4.80;99.90;;;2.81;100.00;99551.66;4921694;28;101553;-60
2021/03/15 08:25:47;;;;;;;14.87;9.43;;;4.70;99.90;;;2.83;100.00;99554.16;4923018;28;99955;-60
2021/03/15 08:28:15;;;;;;;15.40;9.97;;;4.90;99.90;;;2.85;100.00;99546.91;4923316;28;100344;-60
2021/03/15 08:31:22;;;;;;;13.57;9.30;;;4.90;99.90;;;2.75;100.00;99551.28;4924099;28;101454;-59
2021/03/15 08:33:50;;;;;;;18.23;9.20;;;4.80;99.90;;;2.91;100.00;99548.22;4924800;28;100735;-59
2021/03/15 08:36:18;;;;;;;14.33;9.53;;;4.90;99.90;;;2.89;100.00;99553.63;4923639;28;100083;-60
2021/03/15 08:38:45;;;;;;;16.77;8.20;;;5.00;99.90;;;2.94;100.00;99546.19;4922516;28;100628;-61
2021/03/15 08:41:21;;;;;;;16.67;8.77;;;4.90;99.90;;;2.97;100.00;99545.91;4923033;28;101123;-60
2021/03/15 08:43:49;;;;;;;13.17;9.53;;;4.90;99.90;;;2.91;100.00;99546.44;4923160;28;100974;-59
2021/03/15 08:46:19;;;;;;;13.50;10.23;;;5.00;99.90;;;3.03;100.00;99540.13;4923212;28;100260;-61
2021/03/15 08:49:09;;;;;;;15.20;9.20;;;5.00;99.90;;;3.13;100.00;99545.47;4915820;28;100119;-60
2021/03/15 08:51:47;;;;;;;12.83;10.40;;;5.20;99.90;;;3.20;100.00;99544.00;4923036;28;101349;-59
2021/03/15 08:54:40;;;;;;;14.93;10.07;;;5.30;99.90;;;3.05;100.00;99545.28;4922114;28;100808;-61
2021/03/15 08:57:29;;;;;;;16.93;10.37;;;5.20;99.90;;;3.16;100.00;99542.56;4914509;28;100775;-59
2021/03/15 08:59:56;;;;;;;16.27;10.27;;;5.20;99.90;;;3.07;100.00;99546.84;4922233;28;100479;-61
2021/03/15 09:02:35;;;;;;;12.73;9.13;;;5.20;99.90;;;2.96;100.00;99540.78;4922661;28;101008;-59
2021/03/15 09:05:28;;;;;;;14.10;10.17;;;5.20;99.90;;;2.95;100.00;99549.66;4921856;28;100625;-61
2021/03/15 09:08:00;;;;;;;14.60;10.37;;;5.00;99.90;;;2.94;100.00;99546.19;4907903;28;100154;-60
2021/03/15 09:10:38;;;;;;;14.63;9.47;;;5.20;99.90;;;2.93;100.00;99541.84;4922134;28;100482;-60
2021/03/15 09:13:26;;;;;;;17.47;11.43;;;4.90;99.90;;;2.99;100.00;99543.97;4922305;28;101719;-60
2021/03/15 09:16:01;;;;;;;14.47;11.33;;;5.00;99.90;;;2.98;100.00;99546.75;4923312;28;100751;-62
2021/03/15 09:18:55;;;;;;;19.70;13.10;;;4.90;99.90;;;2.94;100.00;99547.97;4918078;28;100155;-59
2021/03/15 09:21:55;;;;;;;16.53;12.00;;;5.00;99.90;;;2.83;100.00;99540.94;4919819;28;100353;-59
2021/03/15 09:24:51;;;;;;;15.67;12.43;;;4.90;99.90;;;2.93;100.00;99535.72;4919699;28;100790;-60
2021/03/15 09:27:36;;;;;;;14.97;11.00;;;5.80;99.90;;;2.88;100.00;99538.75;4921949;28;101113;-61
2021/03/15 09:30:17;;;;;;;15.93;11.07;;;5.50;99.90;;;2.93;100.00;99539.22;4921647;28;100274;-62
2021/03/15 09:32:45;;;;;;;33.70;24.33;;;4.90;99.90;;;2.93;100.00;99530.44;4920488;28;100189;-60
2021/03/15 09:35:28;;;;;;;25.67;18.40;;;5.20;99.90;;;2.99;100.00;99533.41;4917157;28;101343;-61
2021/03/15 09:38:03;;;;;;;29.63;18.57;;;4.90;99.90;;;3.05;100.00;99518.84;4916199;28;101010;-61
2021/03/15 09:40:35;;;;;;;49.30;30.53;;;4.90;99.90;;;2.91;100.00;99533.22;4915175;28;100526;-61
2021/03/15 09:43:02;;;;;;;25.43;10.50;;;5.10;99.90;;;3.10;100.00;99530.69;4922253;28;100674;-60
2021/03/15 09:45:35;;;;;;;12.93;10.00;;;5.00;99.90;;;3.02;100.00;99530.50;4921995;28;100855;-58
2021/03/15 09:48:05;;;;;;;30.73;19.67;;;5.00;99.90;;;3.01;100.00;99531.47;4904304;28;100355;-61
2021/03/15 09:50:40;;;;;;;13.63;10.53;;;5.00;99.90;;;2.92;100.00;99534.06;4903451;28;100336;-62
2021/03/15 09:53:21;;;;;;;15.10;11.10;;;4.80;99.90;;;2.84;100.00;99532.06;4927440;28;100311;-61
2021/03/15 09:56:04;;;;;;;23.87;8.70;;;6.10;99.90;;;2.76;100.00;99527.41;4921676;28;101010;-60
2021/03/15 09:58:35;;;;;;;11.83;8.80;;;4.90;99.90;;;2.71;100.00;99542.81;4917958;28;102316;-62
2021/03/15 10:01:09;;;;;;;11.07;8.77;;;4.90;99.90;;;2.69;100.00;99536.81;4920280;28;100407;-62
2021/03/15 10:03:57;;;;;;;12.07;8.30;;;4.90;99.90;;;2.74;100.00;99536.41;4904026;28;100121;-62
2021/03/15 10:06:44;;;;;;;7.83;6.00;;;5.60;99.90;;;2.65;100.00;99535.38;4921219;28;100486;-60
2021/03/15 10:09:31;;;;;;;8.87;6.97;;;4.90;99.90;;;2.75;100.00;99538.09;4919196;28;100256;-62
2021/03/15 10:12:22;;;;;;;8.30;6.73;;;4.80;99.90;;;2.71;100.00;99531.41;4923047;28;100076;-62
2021/03/15 10:15:09;;;;;;;22.00;8.30;;;5.30;99.90;;;2.80;100.00;99528.81;4922856;28;100484;-63
2021/03/15 10:18:10;;;;;;;10.73;8.53;;;4.80;99.90;;;2.84;100.00;99542.63;4886772;28;100798;-62
2021/03/15 10:20:43;;;;;;;11.50;8.83;;;4.70;99.90;;;2.74;100.00;99537.25;4906430;28;101497;-63
2021/03/15 10:23:13;;;;;;;9.73;8.10;;;4.90;99.90;;;2.77;100.00;99533.53;4907143;28;100355;-63
2021/03/15 10:25:54;;;;;;;10.80;8.43;;;4.80;99.90;;;2.72;100.00;99525.16;4903630;28;100395;-62
2021/03/15 10:28:22;;;;;;;21.33;7.83;;;4.90;99.90;;;2.68;100.00;99532.47;4907166;28;101780;-62
2021/03/15 10:30:48;;;;;;;21.80;9.30;;;4.90;99.90;;;2.71;100.00;99528.75;4906451;28;102799;-61
2021/03/15 10:33:18;;;;;;;11.90;8.13;;;5.00;99.90;;;2.70;100.00;99529.72;4906707;28;100156;-62
2021/03/15 10:35:48;;;;;;;6.87;6.00;;;4.80;99.90;;;2.64;100.00;99530.22;4918133;28;100170;-62
2021/03/15 10:38:22;;;;;;;8.33;7.30;;;4.80;99.90;;;2.73;100.00;99526.81;4899381;28;103323;-63
2021/03/15 10:40:58;;;;;;;8.40;7.03;;;6.00;99.90;;;2.61;100.00;99526.00;4924540;28;100242;-62